createdAt,value
2019-02-04T00:00:52.290Z,101570.75
2019-02-04T00:03:22.991Z,101576.20
2019-02-04T00:05:53.039Z,101583.33
2019-02-04T00:08:22.731Z,101576.61
2019-02-04T00:10:53.252Z,101574.52
2019-02-04T00:13:25.188Z,101572.42
2019-02-04T00:15:55.888Z,101581.24
2019-02-04T00:18:25.510Z,101580.82
2019-02-04T00:20:55.959Z,101588.33
2019-02-04T00:23:26.491Z,101600.51
2019-02-04T00:25:56.676Z,101606.37
2019-02-04T00:28:26.770Z,101607.63
2019-02-04T00:30:56.451Z,101607.65
2019-02-04T00:33:28.128Z,101616.86
2019-02-04T00:36:00.442Z,101623.14
2019-02-04T00:38:30.620Z,101620.61
2019-02-04T00:41:02.050Z,101613.07
2019-02-04T00:43:33.712Z,101616.00
2019-02-04T00:46:03.408Z,101622.27
2019-02-04T00:48:33.309Z,101623.97
2019-02-04T00:51:04.737Z,101625.20
2019-02-04T00:53:35.252Z,101633.14
2019-02-04T00:56:05.421Z,101631.89
2019-02-04T00:58:35.121Z,101624.77
2019-02-04T01:01:06.306Z,101626.45
2019-02-04T01:03:36.373Z,101632.73
2019-02-04T01:06:06.228Z,101639.44
2019-02-04T01:08:36.441Z,101652.02
2019-02-04T01:11:06.417Z,101657.48
2019-02-04T01:13:36.458Z,101665.03
2019-02-04T01:16:07.085Z,101663.79
2019-02-04T01:18:36.705Z,101657.50
2019-02-04T01:21:06.923Z,101653.73
2019-02-04T01:23:37.325Z,101660.84
2019-02-04T01:26:07.509Z,101670.03
2019-02-04T01:28:37.692Z,101679.26
2019-02-04T01:31:07.945Z,101690.58
2019-02-04T01:33:38.434Z,101692.66
2019-02-04T01:36:08.455Z,101688.05
2019-02-04T01:38:38.221Z,101691.00
2019-02-04T01:41:09.170Z,101701.89
2019-02-04T01:43:39.703Z,101699.39
2019-02-04T01:46:10.066Z,101706.09
2019-02-04T01:48:39.678Z,101709.86
2019-02-04T01:51:09.503Z,101711.53
2019-02-04T01:53:39.712Z,101716.58
2019-02-04T01:56:09.356Z,101721.60
2019-02-04T01:58:39.331Z,101725.37
2019-02-04T02:01:09.002Z,101728.28
2019-02-04T02:03:38.618Z,101732.05
2019-02-04T02:06:09.061Z,101737.08
2019-02-04T02:08:39.029Z,101737.52
2019-02-04T02:11:08.716Z,101746.73
2019-02-04T02:13:38.637Z,101744.22
2019-02-04T02:16:08.365Z,101742.11
2019-02-04T02:18:37.974Z,101741.71
2019-02-04T02:21:07.592Z,101742.97
2019-02-04T02:23:37.581Z,101748.81
2019-02-04T02:26:07.665Z,101749.64
2019-02-04T02:28:37.279Z,101755.09
2019-02-04T02:31:07.200Z,101758.03
2019-02-04T02:33:38.446Z,101760.95
2019-02-04T02:36:08.706Z,101768.49
2019-02-04T02:38:38.525Z,101774.37
2019-02-04T02:41:08.150Z,101781.06
2019-02-04T02:43:37.767Z,101785.67
2019-02-04T02:46:07.856Z,101788.19
2019-02-04T02:48:37.511Z,101799.92
2019-02-04T02:51:07.497Z,101798.23
2019-02-04T02:53:37.916Z,101801.19
2019-02-04T02:56:08.107Z,101804.54
2019-02-04T02:58:38.632Z,101804.52
2019-02-04T03:01:08.318Z,101807.05
2019-02-04T03:03:38.882Z,101811.23
2019-02-04T03:06:09.610Z,101810.38
2019-02-04T03:08:40.515Z,101818.33
2019-02-04T03:11:10.310Z,101824.22
2019-02-04T03:13:40.070Z,101825.89
2019-02-04T03:16:09.934Z,101833.42
2019-02-04T03:18:39.665Z,101848.50
2019-02-04T03:21:10.253Z,101848.48
2019-02-04T03:23:39.900Z,101847.23
2019-02-04T03:26:10.410Z,101858.10
2019-02-04T03:28:41.431Z,101853.94
2019-02-04T03:31:12.584Z,101861.88
2019-02-04T03:33:43.305Z,101854.75
2019-02-04T03:36:12.918Z,101863.13
2019-02-04T03:38:43.712Z,101868.58
2019-02-04T03:41:14.630Z,101861.44
2019-02-04T03:43:46.085Z,101860.19
2019-02-04T03:46:15.826Z,101866.47
2019-02-04T03:48:45.818Z,101867.30
2019-02-04T03:51:15.476Z,101861.04
2019-02-04T03:53:45.093Z,101873.16
2019-02-04T03:56:15.149Z,101870.64
2019-02-04T03:58:45.454Z,101875.68
2019-02-04T04:01:15.104Z,101877.76
2019-02-04T04:03:44.724Z,101881.53
2019-02-04T04:06:14.722Z,101892.84
2019-02-04T04:08:45.235Z,101894.91
2019-02-04T04:11:14.968Z,101897.83
2019-02-04T04:13:44.581Z,101906.20
2019-02-04T04:16:15.794Z,101914.59
2019-02-04T04:18:47.468Z,101912.48
2019-02-04T04:21:17.256Z,101917.91
2019-02-04T04:23:47.201Z,101925.04
2019-02-04T04:26:16.813Z,101923.38
2019-02-04T04:28:46.806Z,101920.86
2019-02-04T04:31:16.728Z,101930.88
2019-02-04T04:33:46.491Z,101936.74
2019-02-04T04:36:16.208Z,101945.95
2019-02-04T04:38:45.884Z,101948.87
2019-02-04T04:41:15.660Z,101940.92
2019-02-04T04:43:45.640Z,101946.34
2019-02-04T04:46:15.469Z,101945.49
2019-02-04T04:48:45.124Z,101952.17
2019-02-04T04:51:15.007Z,101951.73
2019-02-04T04:53:45.730Z,101946.72
2019-02-04T04:56:17.000Z,101955.49
2019-02-04T04:58:46.621Z,101963.84
2019-02-04T05:01:17.091Z,101965.52
2019-02-04T05:03:46.804Z,101970.93
2019-02-04T05:06:16.471Z,101983.89
2019-02-04T05:08:46.930Z,101986.82
2019-02-04T05:11:17.921Z,101985.53
2019-02-04T05:13:47.602Z,101988.05
2019-02-04T05:16:17.289Z,101988.88
2019-02-04T05:18:47.172Z,101985.12
2019-02-04T05:21:16.814Z,101990.56
2019-02-04T05:23:46.461Z,101999.31
2019-02-04T05:26:16.373Z,102010.22
2019-02-04T05:28:46.289Z,102021.95
2019-02-04T05:31:17.145Z,102018.22
2019-02-04T05:33:46.766Z,102031.21
2019-02-04T05:36:16.497Z,102031.19
2019-02-04T05:38:46.156Z,102029.92
2019-02-04T05:41:16.082Z,102038.69
2019-02-04T05:43:46.176Z,102044.96
2019-02-04T05:46:16.129Z,102046.20
2019-02-04T05:48:49.518Z,102052.84
2019-02-04T05:51:17.242Z,102062.39
2019-02-04T05:53:47.161Z,102072.41
2019-02-04T05:56:16.856Z,102073.26
2019-02-04T05:58:46.541Z,102076.99
2019-02-04T06:01:16.194Z,102081.17
2019-02-04T06:03:45.985Z,102094.53
2019-02-04T06:06:15.594Z,102096.17
2019-02-04T06:08:45.424Z,102105.80
2019-02-04T06:11:15.031Z,102100.83
2019-02-04T06:13:44.840Z,102111.78
2019-02-04T06:16:14.528Z,102113.45
2019-02-04T06:18:44.132Z,102121.79
2019-02-04T06:21:13.741Z,102124.28
2019-02-04T06:23:43.491Z,102129.68
2019-02-04T06:26:13.788Z,102138.00
2019-02-04T06:28:43.374Z,102140.08
2019-02-04T06:31:13.019Z,102145.91
2019-02-04T06:33:42.641Z,102151.34
2019-02-04T06:36:12.244Z,102151.75
2019-02-04T06:38:41.976Z,102152.98
2019-02-04T06:41:12.250Z,102170.16
2019-02-04T06:43:42.683Z,102170.16
2019-02-04T06:46:12.513Z,102172.26
2019-02-04T06:48:42.300Z,102184.80
2019-02-04T06:51:11.919Z,102194.80
2019-02-04T06:53:42.582Z,102193.11
2019-02-04T06:56:12.467Z,102209.80
2019-02-04T06:58:42.083Z,102206.53
2019-02-04T07:01:11.901Z,102206.16
2019-02-04T07:03:41.520Z,102207.41
2019-02-04T07:06:11.214Z,102215.34
2019-02-04T07:08:40.895Z,102227.48
2019-02-04T07:11:10.516Z,102230.86
2019-02-04T07:13:42.658Z,102231.71
2019-02-04T07:16:13.769Z,102232.99
2019-02-04T07:18:44.028Z,102236.35
2019-02-04T07:21:14.045Z,102240.08
2019-02-04T07:23:44.010Z,102238.80
2019-02-04T07:26:13.625Z,102247.14
2019-02-04T07:28:43.251Z,102243.81
2019-02-04T07:31:12.973Z,102248.02
2019-02-04T07:33:42.761Z,102250.94
2019-02-04T07:36:12.486Z,102251.28
2019-02-04T07:38:42.320Z,102251.97
2019-02-04T07:41:14.530Z,102262.69
2019-02-04T07:43:43.343Z,102265.26
2019-02-04T07:46:13.174Z,102269.12
2019-02-04T07:48:43.283Z,102269.69
2019-02-04T07:51:13.182Z,102276.88
2019-02-04T07:53:42.826Z,102278.63
2019-02-04T07:56:12.450Z,102281.17
2019-02-04T07:58:42.763Z,102277.41
2019-02-04T08:01:13.012Z,102282.39
2019-02-04T08:03:42.637Z,102288.26
2019-02-04T08:06:12.957Z,102293.72
2019-02-04T08:08:43.191Z,102300.02
2019-02-04T08:11:12.802Z,102311.50
2019-02-04T08:13:43.642Z,102316.63
2019-02-04T08:16:13.352Z,102316.31
2019-02-04T08:18:42.983Z,102315.05
2019-02-04T08:21:12.653Z,102318.36
2019-02-04T08:23:42.392Z,102321.73
2019-02-04T08:26:12.030Z,102321.83
2019-02-04T08:28:41.729Z,102325.73
2019-02-04T08:31:11.387Z,102328.23
2019-02-04T08:33:41.954Z,102328.62
2019-02-04T08:36:12.723Z,102327.86
2019-02-04T08:38:42.377Z,102330.82
2019-02-04T08:41:12.049Z,102338.03
2019-02-04T08:43:42.082Z,102330.05
2019-02-04T08:46:11.729Z,102335.54
2019-02-04T08:48:41.930Z,102336.81
2019-02-04T08:51:14.475Z,102341.81
2019-02-04T08:53:44.638Z,102339.30
2019-02-04T08:56:14.683Z,102333.72
2019-02-04T08:58:44.929Z,102337.84
2019-02-04T09:01:15.927Z,102337.22
2019-02-04T09:03:45.539Z,102332.84
2019-02-04T09:06:16.496Z,102343.22
2019-02-04T09:08:47.153Z,102336.41
2019-02-04T09:11:16.767Z,102343.13
2019-02-04T09:13:46.516Z,102343.16
2019-02-04T09:16:17.799Z,102340.62
2019-02-04T09:18:49.088Z,102347.73
2019-02-04T09:21:19.034Z,102356.59
2019-02-04T09:23:48.991Z,102360.73
2019-02-04T09:26:18.607Z,102355.67
2019-02-04T09:28:48.239Z,102365.34
2019-02-04T09:31:18.265Z,102363.49
2019-02-04T09:33:48.412Z,102358.21
2019-02-04T09:36:18.023Z,102362.61
2019-02-04T09:38:48.889Z,102369.38
2019-02-04T09:41:18.511Z,102367.80
2019-02-04T09:43:48.900Z,102366.56
2019-02-04T09:46:20.295Z,102366.09
2019-02-04T09:48:50.888Z,102374.92
2019-02-04T09:51:20.582Z,102377.12
2019-02-04T09:53:50.239Z,102381.03
2019-02-04T09:56:19.849Z,102383.70
2019-02-04T09:58:49.468Z,102382.97
2019-02-04T10:01:19.307Z,102388.09
2019-02-04T10:03:49.526Z,102396.55
2019-02-04T10:06:19.423Z,102388.61
2019-02-04T10:08:49.108Z,102392.71
2019-02-04T10:11:20.427Z,102395.16
2019-02-04T10:13:50.408Z,102393.76
2019-02-04T10:16:20.968Z,102397.16
2019-02-04T10:18:51.396Z,102397.24
2019-02-04T10:21:22.974Z,102395.91
2019-02-04T10:23:52.621Z,102398.79
2019-02-04T10:26:22.989Z,102408.76
2019-02-04T10:28:52.605Z,102400.64
2019-02-04T10:31:22.450Z,102406.48
2019-02-04T10:33:56.324Z,102402.81
2019-02-04T10:36:26.785Z,102395.81
2019-02-04T10:38:57.732Z,102397.55
2019-02-04T10:41:27.347Z,102406.73
2019-02-04T10:43:57.932Z,102405.98
2019-02-04T10:46:27.958Z,102414.45
2019-02-04T10:48:58.274Z,102418.70
2019-02-04T10:51:28.013Z,102415.40
2019-02-04T10:53:57.787Z,102416.73
2019-02-04T10:56:29.007Z,102420.16
2019-02-04T10:58:58.815Z,102435.72
2019-02-04T11:01:28.754Z,102431.97
2019-02-04T11:03:58.382Z,102437.02
2019-02-04T11:06:28.842Z,102444.64
2019-02-04T11:08:58.473Z,102439.97
2019-02-04T11:11:29.777Z,102444.53
2019-02-04T11:13:59.384Z,102449.19
2019-02-04T11:16:30.533Z,102452.57
2019-02-04T11:19:00.911Z,102450.09
2019-02-04T11:21:30.541Z,102456.73
2019-02-04T11:24:01.041Z,102459.69
2019-02-04T11:26:32.224Z,102455.15
2019-02-04T11:29:03.464Z,102469.45
2019-02-04T11:31:33.919Z,102468.54
2019-02-04T11:34:03.845Z,102468.61
2019-02-04T11:36:33.532Z,102472.38
2019-02-04T11:39:04.941Z,102470.65
2019-02-04T11:41:34.982Z,102471.88
2019-02-04T11:44:04.847Z,102472.39
2019-02-04T11:46:34.541Z,102470.81
2019-02-04T11:49:05.577Z,102488.89
2019-02-04T11:51:35.498Z,102491.39
2019-02-04T11:54:05.760Z,102484.63
2019-02-04T11:56:35.439Z,102479.06
2019-02-04T11:59:05.933Z,102475.70
2019-02-04T12:01:36.153Z,102479.50
2019-02-04T12:04:09.684Z,102487.50
2019-02-04T12:06:39.572Z,102482.85
2019-02-04T12:09:10.251Z,102491.23
2019-02-04T12:11:41.511Z,102492.98
2019-02-04T12:14:12.984Z,102491.79
2019-02-04T12:16:42.967Z,102499.80
2019-02-04T12:19:13.306Z,102511.52
2019-02-04T12:21:43.999Z,102507.75
2019-02-04T12:24:15.100Z,102505.27
2019-02-04T12:26:45.670Z,102508.66
2019-02-04T12:29:15.433Z,102508.28
2019-02-04T12:31:45.173Z,102513.34
2019-02-04T12:34:16.931Z,102517.61
2019-02-04T12:36:47.122Z,102526.02
2019-02-04T12:39:18.459Z,102522.66
2019-02-04T12:41:50.576Z,102519.72
2019-02-04T12:44:19.400Z,102519.72
2019-02-04T12:46:49.250Z,102519.28
2019-02-04T12:49:20.013Z,102534.05
2019-02-04T12:51:49.971Z,102539.05
2019-02-04T12:54:20.031Z,102539.42
2019-02-04T12:56:49.929Z,102550.06
2019-02-04T12:59:19.622Z,102534.03
2019-02-04T13:01:49.874Z,102541.11
2019-02-04T13:04:19.569Z,102552.86
2019-02-04T13:06:50.087Z,102552.01
2019-02-04T13:09:20.332Z,102565.00
2019-02-04T13:11:50.695Z,102556.13
2019-02-04T13:14:20.310Z,102567.81
2019-02-04T13:16:50.148Z,102563.56
2019-02-04T13:19:20.640Z,102567.36
2019-02-04T13:21:50.873Z,102570.35
2019-02-04T13:24:20.563Z,102566.19
2019-02-04T13:26:51.325Z,102563.80
2019-02-04T13:29:20.947Z,102553.50
2019-02-04T13:31:51.643Z,102555.19
2019-02-04T13:34:21.597Z,102555.61
2019-02-04T13:36:51.260Z,102553.13
2019-02-04T13:39:20.946Z,102547.17
2019-02-04T13:41:52.130Z,102552.13
2019-02-04T13:44:21.879Z,102565.87
2019-02-04T13:46:52.192Z,102562.66
2019-02-04T13:49:22.620Z,102573.91
2019-02-04T13:51:57.609Z,102578.69
2019-02-04T13:54:26.062Z,102582.55
2019-02-04T13:56:56.665Z,102588.91
2019-02-04T13:59:26.376Z,102585.95
2019-02-04T14:01:56.421Z,102593.97
2019-02-04T14:04:26.349Z,102595.55
2019-02-04T14:06:55.977Z,102594.22
2019-02-04T14:09:26.238Z,102602.55
2019-02-04T14:11:56.412Z,102600.82
2019-02-04T14:14:26.259Z,102600.37
2019-02-04T14:16:56.257Z,102601.19
2019-02-04T14:19:26.561Z,102597.38
2019-02-04T14:22:08.672Z,102595.19
2019-02-04T14:24:29.250Z,102606.03
2019-02-04T14:27:00.515Z,102606.37
2019-02-04T14:29:30.211Z,102605.50
2019-02-04T14:31:59.895Z,102608.86
2019-02-04T14:34:29.515Z,102608.78
2019-02-04T14:37:00.073Z,102605.78
2019-02-04T14:39:30.227Z,102607.43
2019-02-04T14:42:01.208Z,102604.81
2019-02-04T14:44:32.571Z,102603.08
2019-02-04T14:47:05.399Z,102604.27
2019-02-04T14:49:39.707Z,102611.33
2019-02-04T14:52:24.537Z,102607.47
2019-02-04T14:55:24.313Z,102610.31
2019-02-04T14:57:57.714Z,102610.23
2019-02-04T15:00:39.407Z,102608.09
2019-02-04T15:03:33.442Z,102609.67
2019-02-04T15:06:35.771Z,102607.03
2019-02-04T15:09:16.799Z,102601.44
2019-02-04T15:11:52.274Z,102605.11
2019-02-04T15:14:33.977Z,102603.72
2019-02-04T15:17:06.657Z,102603.54
2019-02-04T15:19:48.859Z,102597.92
2019-02-04T15:22:36.042Z,102590.20
2019-02-04T15:25:29.215Z,102596.31
2019-02-04T15:28:20.271Z,102596.56
2019-02-04T15:30:58.753Z,102590.97
2019-02-04T15:33:35.333Z,102591.69
2019-02-04T15:36:25.938Z,102592.81
2019-02-04T15:38:59.022Z,102594.38
2019-02-04T15:41:34.788Z,102584.62
2019-02-04T15:44:39.605Z,102583.31
2019-02-04T15:47:12.410Z,102579.91
2019-02-04T15:49:52.946Z,102581.88
2019-02-04T15:52:22.985Z,102577.17
2019-02-04T15:54:53.264Z,102582.94
2019-02-04T15:57:23.166Z,102576.98
2019-02-04T15:59:53.618Z,102579.39
2019-02-04T16:02:23.254Z,102581.85
2019-02-04T16:04:54.176Z,102584.30
2019-02-04T16:07:24.067Z,102585.50
2019-02-04T16:09:55.281Z,102584.59
2019-02-04T16:12:24.908Z,102583.69
2019-02-04T16:14:54.586Z,102592.83
2019-02-04T16:17:24.765Z,102593.16
2019-02-04T16:19:54.714Z,102586.80
2019-02-04T16:22:24.487Z,102590.05
2019-02-04T16:24:54.390Z,102596.17
2019-02-04T16:27:24.452Z,102599.41
2019-02-04T16:29:54.132Z,102607.67
2019-02-04T16:32:24.040Z,102613.03
2019-02-04T16:34:53.741Z,102605.84
2019-02-04T16:37:23.552Z,102606.19
2019-02-04T16:39:53.178Z,102616.20
2019-02-04T16:42:23.447Z,102613.25
2019-02-04T16:44:53.207Z,102612.36
2019-02-04T16:47:23.051Z,102616.97
2019-02-04T16:49:53.005Z,102615.25
2019-02-04T16:52:22.677Z,102608.13
2019-02-04T16:54:52.830Z,102607.27
2019-02-04T16:57:23.164Z,102602.66
2019-02-04T16:59:53.139Z,102604.26
2019-02-04T17:02:22.785Z,102597.13
2019-02-04T17:04:52.714Z,102597.89
2019-02-04T17:07:22.762Z,102595.77
2019-02-04T17:09:52.818Z,102586.55
2019-02-04T17:12:23.879Z,102591.16
2019-02-04T17:14:54.816Z,102592.80
2019-02-04T17:17:24.624Z,102585.69
2019-02-04T17:19:54.707Z,102585.29
2019-02-04T17:22:25.450Z,102578.13
2019-02-04T17:24:55.171Z,102588.61
2019-02-04T17:27:25.927Z,102586.11
2019-02-04T17:29:58.467Z,102584.03
2019-02-04T17:32:28.098Z,102582.35
2019-02-04T17:35:00.033Z,102578.59
2019-02-04T17:37:33.972Z,102579.83
2019-02-04T17:40:07.618Z,102582.80
2019-02-04T17:42:38.558Z,102577.00
2019-02-04T17:45:11.878Z,102580.40
2019-02-04T17:47:44.276Z,102575.34
2019-02-04T17:50:17.991Z,102581.61
2019-02-04T17:52:50.126Z,102581.19
2019-02-04T17:55:23.102Z,102581.19
2019-02-04T17:57:58.657Z,102584.56
2019-02-04T18:00:39.021Z,102579.95
2019-02-04T18:03:10.882Z,102581.66
2019-02-04T18:05:44.571Z,102578.70
2019-02-04T18:08:16.390Z,102577.43
2019-02-04T18:10:47.704Z,102578.17
2019-02-04T18:13:21.362Z,102571.06
2019-02-04T18:15:55.953Z,102566.40
2019-02-04T18:18:25.796Z,102575.55
2019-02-04T18:20:55.657Z,102567.60
2019-02-04T18:23:25.395Z,102575.10
2019-02-04T18:25:55.006Z,102573.84
2019-02-04T18:28:24.629Z,102577.20
2019-02-04T18:30:55.474Z,102578.00
2019-02-04T18:33:25.868Z,102577.54
2019-02-04T18:35:58.107Z,102574.20
2019-02-04T18:38:31.737Z,102577.14
2019-02-04T18:41:06.183Z,102576.69
2019-02-04T18:43:40.749Z,102575.80
2019-02-04T18:46:14.713Z,102578.30
2019-02-04T18:48:47.429Z,102586.37
2019-02-04T18:51:17.422Z,102585.70
2019-02-04T18:53:57.718Z,102582.35
2019-02-04T18:56:24.388Z,102585.69
2019-02-04T18:58:54.002Z,102592.24
2019-02-04T19:01:23.760Z,102580.95
2019-02-04T19:03:53.540Z,102582.63
2019-02-04T19:06:23.325Z,102577.16
2019-02-04T19:08:52.951Z,102578.81
2019-02-04T19:11:24.223Z,102577.96
2019-02-04T19:13:53.855Z,102573.30
2019-02-04T19:16:25.054Z,102559.91
2019-02-04T19:18:54.721Z,102558.61
2019-02-04T19:21:24.841Z,102566.55
2019-02-04T19:23:54.603Z,102567.70
2019-02-04T19:26:24.387Z,102568.95
2019-02-04T19:28:54.874Z,102560.13
2019-02-04T19:31:24.569Z,102559.67
2019-02-04T19:33:54.230Z,102563.81
2019-02-04T19:36:24.145Z,102570.81
2019-02-04T19:38:53.915Z,102572.39
2019-02-04T19:41:23.605Z,102565.63
2019-02-04T19:43:53.341Z,102562.25
2019-02-04T19:46:23.169Z,102565.55
2019-02-04T19:48:52.980Z,102560.89
2019-02-04T19:51:23.270Z,102567.09
2019-02-04T19:53:52.976Z,102558.67
2019-02-04T19:56:22.695Z,102565.31
2019-02-04T19:58:52.442Z,102563.92
2019-02-04T20:01:22.077Z,102559.66
2019-02-04T20:03:52.712Z,102562.89
2019-02-04T20:06:22.341Z,102559.02
2019-02-04T20:08:52.042Z,102556.89
2019-02-04T20:11:24.503Z,102551.83
2019-02-04T20:13:54.156Z,102541.75
2019-02-04T20:16:26.930Z,102545.90
2019-02-04T20:18:56.918Z,102550.85
2019-02-04T20:21:26.610Z,102550.36
2019-02-04T20:23:56.249Z,102546.95
2019-02-04T20:26:26.038Z,102546.89
2019-02-04T20:28:56.136Z,102547.27
2019-02-04T20:31:27.429Z,102541.02
2019-02-04T20:34:00.124Z,102545.97
2019-02-04T20:36:30.227Z,102546.37
2019-02-04T20:39:01.854Z,102542.62
2019-02-04T20:41:31.650Z,102546.81
2019-02-04T20:44:01.275Z,102545.17
2019-02-04T20:46:32.251Z,102540.19
2019-02-04T20:49:02.498Z,102539.84
2019-02-04T20:51:34.619Z,102541.56
2019-02-04T20:54:04.616Z,102544.52
2019-02-04T20:56:34.496Z,102544.93
2019-02-04T20:59:04.612Z,102542.48
2019-02-04T21:01:34.308Z,102535.83
2019-02-04T21:04:05.712Z,102541.25
2019-02-04T21:06:35.359Z,102535.84
2019-02-04T21:09:08.155Z,102536.34
2019-02-04T21:11:38.020Z,102541.37
2019-02-04T21:14:08.001Z,102525.96
2019-02-04T21:16:37.647Z,102542.67
2019-02-04T21:19:07.796Z,102540.57
2019-02-04T21:21:37.983Z,102537.28
2019-02-04T21:24:07.609Z,102533.59
2019-02-04T21:26:37.812Z,102535.70
2019-02-04T21:29:07.553Z,102536.15
2019-02-04T21:31:37.181Z,102538.25
2019-02-04T21:34:06.969Z,102535.77
2019-02-04T21:36:36.857Z,102527.91
2019-02-04T21:39:08.061Z,102527.93
2019-02-04T21:41:39.328Z,102517.50
2019-02-04T21:44:09.272Z,102521.61
2019-02-04T21:46:39.113Z,102526.14
2019-02-04T21:49:08.874Z,102520.74
2019-02-04T21:51:38.491Z,102526.28
2019-02-04T21:54:08.949Z,102522.24
2019-02-04T21:56:38.613Z,102519.23
2019-02-04T21:59:08.777Z,102516.67
2019-02-04T22:01:38.672Z,102515.75
2019-02-04T22:04:08.339Z,102514.04
2019-02-04T22:06:39.026Z,102517.74
2019-02-04T22:09:10.441Z,102518.98
2019-02-04T22:11:40.110Z,102514.42
2019-02-04T22:14:11.816Z,102524.78
2019-02-04T22:16:41.589Z,102514.77
2019-02-04T22:19:11.721Z,102511.82
2019-02-04T22:21:41.341Z,102521.02
2019-02-04T22:24:13.243Z,102513.51
2019-02-04T22:26:44.972Z,102510.55
2019-02-04T22:29:15.085Z,102504.75
2019-02-04T22:31:45.113Z,102490.16
2019-02-04T22:34:15.300Z,102481.41
2019-02-04T22:36:46.019Z,102478.10
2019-02-04T22:39:16.728Z,102482.66
2019-02-04T22:41:46.491Z,102485.99
2019-02-04T22:44:16.978Z,102485.09
2019-02-04T22:46:46.597Z,102479.64
2019-02-04T22:49:16.257Z,102481.34
2019-02-04T22:51:45.897Z,102470.48
2019-02-04T22:54:15.517Z,102474.57
2019-02-04T22:56:45.215Z,102466.67
2019-02-04T22:59:15.309Z,102465.47
2019-02-04T23:01:47.140Z,102463.37
2019-02-04T23:04:17.118Z,102482.98
2019-02-04T23:06:47.648Z,102460.89
2019-02-04T23:09:17.810Z,102460.94
2019-02-04T23:11:47.608Z,102457.18
2019-02-04T23:14:17.377Z,102459.98
2019-02-04T23:16:46.997Z,102447.31
2019-02-04T23:19:16.638Z,102445.48
2019-02-04T23:21:46.469Z,102449.98
2019-02-04T23:24:16.218Z,102448.28
2019-02-04T23:26:46.082Z,102447.46
2019-02-04T23:29:15.840Z,102442.88
2019-02-04T23:31:46.002Z,102450.83
2019-02-04T23:34:16.134Z,102453.78
2019-02-04T23:36:46.184Z,102450.89
2019-02-04T23:39:16.136Z,102448.79
2019-02-04T23:41:45.940Z,102455.51
2019-02-04T23:44:15.694Z,102459.27
2019-02-04T23:46:45.447Z,102459.31
2019-02-04T23:49:15.272Z,102472.61
2019-02-04T23:51:47.330Z,102469.27
2019-02-04T23:54:16.359Z,102471.81
2019-02-04T23:56:46.393Z,102463.06
2019-02-04T23:59:16.003Z,102458.10
